Terminal Aerodrome Forecast
Issued by NWS Sterling, VA

Home | Current Version | Previous Version | Text Only | Print | Product List | Glossary On
Versions: 1 2 3 4 5 6 7 8 9 10 11 12 13 14 15 16 17 18 19 20 21 22 23 24 25 26 27 28 29 30
244
FTUS41 KLWX 230523
TAFBWI
TAF
KBWI 230523Z 2306/2412 07014G20KT 2SM -RA OVC003
     FM231100 07021G40KT 2SM RA BR OVC003
     FM231900 07016G33KT 2SM -RA BR OVC008 WS020/07040KT
     FM240200 03010KT 1SM -SHRA OVC010
     FM240900 32008KT 3SM -SHRA OVC015=

USA.gov is the U.S. government's official web portal to all federal, state and local government web resources and services.